sensor_id;sensor_type;location;lat;lon;timestamp;pressure;altitude;pressure_sealevel;temperature;humidity
77702;BME280;66868;42.708;23.404;2023-06-14T00:00:51;94830.91;;;16.61;100.00
77702;BME280;66868;42.708;23.404;2023-06-14T00:03:18;94879.22;;;16.93;100.00
77702;BME280;66868;42.708;23.404;2023-06-14T00:05:47;94879.09;;;17.04;100.00
77702;BME280;66868;42.708;23.404;2023-06-14T00:08:13;94875.63;;;17.05;100.00
77702;BME280;66868;42.708;23.404;2023-06-14T00:10:40;94883.81;;;17.18;100.00
77702;BME280;66868;42.708;23.404;2023-06-14T00:13:08;94874.81;;;17.14;100.00
77702;BME280;66868;42.708;23.404;2023-06-14T00:15:34;94852.19;;;16.91;100.00
77702;BME280;66868;42.708;23.404;2023-06-14T00:18:00;94850.16;;;16.94;100.00
77702;BME280;66868;42.708;23.404;2023-06-14T00:20:27;94873.47;;;17.10;100.00
77702;BME280;66868;42.708;23.404;2023-06-14T00:22:53;94866.19;;;17.15;100.00
77702;BME280;66868;42.708;23.404;2023-06-14T00:25:21;94872.09;;;17.26;100.00
77702;BME280;66868;42.708;23.404;2023-06-14T00:27:47;94863.47;;;17.36;100.00
77702;BME280;66868;42.708;23.404;2023-06-14T00:30:12;94856.72;;;17.45;100.00
77702;BME280;66868;42.708;23.404;2023-06-14T00:32:38;94865.88;;;17.57;100.00
77702;BME280;66868;42.708;23.404;2023-06-14T00:35:03;94866.66;;;17.67;100.00
77702;BME280;66868;42.708;23.404;2023-06-14T00:37:29;94865.19;;;17.74;100.00
77702;BME280;66868;42.708;23.404;2023-06-14T00:39:54;94857.22;;;17.77;100.00
77702;BME280;66868;42.708;23.404;2023-06-14T00:42:24;94846.56;;;17.72;100.00
77702;BME280;66868;42.708;23.404;2023-06-14T00:44:50;94862.81;;;17.90;100.00
77702;BME280;66868;42.708;23.404;2023-06-14T00:47:15;94857.97;;;17.97;100.00
77702;BME280;66868;42.708;23.404;2023-06-14T00:49:41;94841.28;;;17.83;100.00
77702;BME280;66868;42.708;23.404;2023-06-14T00:52:07;94847.75;;;17.87;100.00
77702;BME280;66868;42.708;23.404;2023-06-14T00:54:32;94855.84;;;17.83;100.00
77702;BME280;66868;42.708;23.404;2023-06-14T00:56:58;94847.34;;;17.82;100.00
77702;BME280;66868;42.708;23.404;2023-06-14T00:59:23;94844.41;;;17.77;100.00
77702;BME280;66868;42.708;23.404;2023-06-14T01:01:48;94856.13;;;17.80;100.00
77702;BME280;66868;42.708;23.404;2023-06-14T01:04:14;94851.66;;;17.82;100.00
77702;BME280;66868;42.708;23.404;2023-06-14T01:06:56;94859.09;;;17.85;100.00
77702;BME280;66868;42.708;23.404;2023-06-14T01:09:35;94860.94;;;17.92;100.00
77702;BME280;66868;42.708;23.404;2023-06-14T01:12:27;94860.66;;;17.95;100.00
77702;BME280;66868;42.708;23.404;2023-06-14T01:14:55;94867.69;;;17.93;100.00
77702;BME280;66868;42.708;23.404;2023-06-14T01:17:22;94853.38;;;17.91;100.00
77702;BME280;66868;42.708;23.404;2023-06-14T01:19:48;94852.34;;;17.84;100.00
77702;BME280;66868;42.708;23.404;2023-06-14T01:22:14;94842.66;;;17.78;100.00
77702;BME280;66868;42.708;23.404;2023-06-14T01:24:40;94854.47;;;17.88;100.00
77702;BME280;66868;42.708;23.404;2023-06-14T01:27:10;94843.31;;;17.89;100.00
77702;BME280;66868;42.708;23.404;2023-06-14T01:29:37;94857.41;;;18.03;100.00
77702;BME280;66868;42.708;23.404;2023-06-14T01:32:04;94852.94;;;18.05;99.77
77702;BME280;66868;42.708;23.404;2023-06-14T01:34:30;94821.38;;;17.67;100.00
77702;BME280;66868;42.708;23.404;2023-06-14T01:36:56;94855.03;;;17.82;100.00
77702;BME280;66868;42.708;23.404;2023-06-14T01:39:23;94854.09;;;17.83;100.00
77702;BME280;66868;42.708;23.404;2023-06-14T01:41:50;94847.75;;;17.87;100.00
77702;BME280;66868;42.708;23.404;2023-06-14T01:44:17;94854.06;;;17.93;100.00
77702;BME280;66868;42.708;23.404;2023-06-14T01:46:45;94849.88;;;17.92;100.00
77702;BME280;66868;42.708;23.404;2023-06-14T01:49:10;94838.44;;;17.86;99.90
77702;BME280;66868;42.708;23.404;2023-06-14T01:51:36;94844.53;;;17.76;100.00
77702;BME280;66868;42.708;23.404;2023-06-14T01:54:01;94849.44;;;17.59;100.00
77702;BME280;66868;42.708;23.404;2023-06-14T01:56:27;94848.38;;;17.52;100.00
77702;BME280;66868;42.708;23.404;2023-06-14T01:58:52;94845.13;;;17.41;100.00
77702;BME280;66868;42.708;23.404;2023-06-14T02:01:19;94827.94;;;17.23;100.00
77702;BME280;66868;42.708;23.404;2023-06-14T02:03:46;94832.78;;;17.17;100.00
77702;BME280;66868;42.708;23.404;2023-06-14T02:06:12;94834.41;;;17.08;100.00
77702;BME280;66868;42.708;23.404;2023-06-14T02:08:37;94859.47;;;17.14;100.00
77702;BME280;66868;42.708;23.404;2023-06-14T02:11:03;94864.16;;;17.09;100.00
77702;BME280;66868;42.708;23.404;2023-06-14T02:13:28;94866.84;;;16.98;100.00
77702;BME280;66868;42.708;23.404;2023-06-14T02:15:53;94868.88;;;17.04;100.00
77702;BME280;66868;42.708;23.404;2023-06-14T02:18:20;94871.31;;;17.06;100.00
77702;BME280;66868;42.708;23.404;2023-06-14T02:20:46;94880.44;;;17.08;100.00
77702;BME280;66868;42.708;23.404;2023-06-14T02:23:12;94860.78;;;16.90;100.00
77702;BME280;66868;42.708;23.404;2023-06-14T02:25:37;94868.06;;;16.85;100.00
77702;BME280;66868;42.708;23.404;2023-06-14T02:28:04;94850.94;;;16.66;100.00
77702;BME280;66868;42.708;23.404;2023-06-14T02:30:30;94879.50;;;16.81;100.00
77702;BME280;66868;42.708;23.404;2023-06-14T02:32:56;94877.22;;;16.77;100.00
77702;BME280;66868;42.708;23.404;2023-06-14T02:35:22;94888.50;;;16.75;100.00
77702;BME280;66868;42.708;23.404;2023-06-14T02:37:49;94880.97;;;16.73;100.00
77702;BME280;66868;42.708;23.404;2023-06-14T02:40:16;94877.88;;;16.79;100.00
77702;BME280;66868;42.708;23.404;2023-06-14T02:42:41;94887.16;;;16.71;100.00
77702;BME280;66868;42.708;23.404;2023-06-14T02:45:07;94865.16;;;16.49;100.00
77702;BME280;66868;42.708;23.404;2023-06-14T02:47:33;94876.38;;;16.58;100.00
77702;BME280;66868;42.708;23.404;2023-06-14T02:49:58;94882.53;;;16.55;100.00
77702;BME280;66868;42.708;23.404;2023-06-14T02:52:24;94883.59;;;16.53;100.00
77702;BME280;66868;42.708;23.404;2023-06-14T02:54:50;94880.22;;;16.52;100.00
77702;BME280;66868;42.708;23.404;2023-06-14T02:57:16;94880.72;;;16.46;100.00
77702;BME280;66868;42.708;23.404;2023-06-14T02:59:41;94863.91;;;16.34;100.00
77702;BME280;66868;42.708;23.404;2023-06-14T03:02:07;94886.53;;;16.48;100.00
77702;BME280;66868;42.708;23.404;2023-06-14T03:04:32;94887.06;;;16.52;100.00
77702;BME280;66868;42.708;23.404;2023-06-14T03:07:02;94871.88;;;16.41;100.00
77702;BME280;66868;42.708;23.404;2023-06-14T03:09:34;94893.16;;;16.51;100.00
77702;BME280;66868;42.708;23.404;2023-06-14T03:12:00;94900.28;;;16.57;100.00
77702;BME280;66868;42.708;23.404;2023-06-14T03:14:26;94888.56;;;16.45;100.00
77702;BME280;66868;42.708;23.404;2023-06-14T03:16:51;94888.97;;;16.50;100.00
77702;BME280;66868;42.708;23.404;2023-06-14T03:19:24;94887.19;;;16.41;100.00
77702;BME280;66868;42.708;23.404;2023-06-14T03:21:51;94898.47;;;16.38;100.00
77702;BME280;66868;42.708;23.404;2023-06-14T03:24:17;94897.41;;;16.41;100.00
77702;BME280;66868;42.708;23.404;2023-06-14T03:26:42;94898.88;;;16.43;100.00
77702;BME280;66868;42.708;23.404;2023-06-14T03:29:08;94898.38;;;16.49;100.00
77702;BME280;66868;42.708;23.404;2023-06-14T03:31:34;94892.72;;;16.46;100.00
77702;BME280;66868;42.708;23.404;2023-06-14T03:34:00;94889.50;;;16.53;100.00
77702;BME280;66868;42.708;23.404;2023-06-14T03:36:26;94897.09;;;16.64;100.00
77702;BME280;66868;42.708;23.404;2023-06-14T03:38:51;94886.59;;;16.58;100.00
77702;BME280;66868;42.708;23.404;2023-06-14T03:41:16;94874.72;;;16.57;100.00
77702;BME280;66868;42.708;23.404;2023-06-14T03:43:42;94903.28;;;16.71;100.00
77702;BME280;66868;42.708;23.404;2023-06-14T03:46:07;94913.53;;;16.81;100.00
77702;BME280;66868;42.708;23.404;2023-06-14T03:48:33;94862.88;;;16.56;100.00
77702;BME280;66868;42.708;23.404;2023-06-14T03:50:58;94886.09;;;16.83;100.00
77702;BME280;66868;42.708;23.404;2023-06-14T03:53:23;94903.88;;;16.94;100.00
77702;BME280;66868;42.708;23.404;2023-06-14T03:55:49;94903.34;;;17.00;100.00
77702;BME280;66868;42.708;23.404;2023-06-14T03:58:17;94909.69;;;17.15;100.00
77702;BME280;66868;42.708;23.404;2023-06-14T04:00:43;94905.63;;;17.22;100.00
77702;BME280;66868;42.708;23.404;2023-06-14T04:03:08;94914.94;;;17.33;100.00
77702;BME280;66868;42.708;23.404;2023-06-14T04:05:33;94906.84;;;17.38;100.00
77702;BME280;66868;42.708;23.404;2023-06-14T04:07:59;94914.94;;;17.43;100.00
77702;BME280;66868;42.708;23.404;2023-06-14T04:10:26;94916.78;;;17.50;100.00
77702;BME280;66868;42.708;23.404;2023-06-14T04:12:51;94854.47;;;17.13;100.00
77702;BME280;66868;42.708;23.404;2023-06-14T04:15:17;94910.88;;;17.50;100.00
77702;BME280;66868;42.708;23.404;2023-06-14T04:17:43;94916.81;;;17.60;100.00
77702;BME280;66868;42.708;23.404;2023-06-14T04:20:08;94918.44;;;17.71;100.00
77702;BME280;66868;42.708;23.404;2023-06-14T04:22:35;94922.94;;;17.86;100.00
77702;BME280;66868;42.708;23.404;2023-06-14T04:25:01;94904.78;;;17.89;99.79
77702;BME280;66868;42.708;23.404;2023-06-14T04:27:27;94922.09;;;18.05;99.25
77702;BME280;66868;42.708;23.404;2023-06-14T04:29:54;94929.88;;;18.13;98.57
77702;BME280;66868;42.708;23.404;2023-06-14T04:32:27;94923.13;;;18.22;97.94
77702;BME280;66868;42.708;23.404;2023-06-14T04:34:55;94923.75;;;18.33;97.32
77702;BME280;66868;42.708;23.404;2023-06-14T04:37:24;94920.22;;;18.44;96.62
77702;BME280;66868;42.708;23.404;2023-06-14T04:39:49;94905.34;;;18.20;96.45
77702;BME280;66868;42.708;23.404;2023-06-14T04:42:15;94910.81;;;18.35;96.70
77702;BME280;66868;42.708;23.404;2023-06-14T04:44:44;94906.44;;;18.45;95.99
77702;BME280;66868;42.708;23.404;2023-06-14T04:47:10;94907.47;;;18.52;95.51
77702;BME280;66868;42.708;23.404;2023-06-14T04:49:38;94928.13;;;18.78;94.56
77702;BME280;66868;42.708;23.404;2023-06-14T04:52:03;94932.28;;;18.88;93.91
77702;BME280;66868;42.708;23.404;2023-06-14T04:54:29;94933.66;;;19.01;93.08
77702;BME280;66868;42.708;23.404;2023-06-14T04:56:56;94930.75;;;19.13;92.57
77702;BME280;66868;42.708;23.404;2023-06-14T04:59:22;94945.94;;;19.24;91.98
77702;BME280;66868;42.708;23.404;2023-06-14T05:01:50;94929.06;;;19.22;91.27
77702;BME280;66868;42.708;23.404;2023-06-14T05:04:17;94941.41;;;19.36;91.14
77702;BME280;66868;42.708;23.404;2023-06-14T05:06:44;94923.69;;;19.33;91.28
77702;BME280;66868;42.708;23.404;2023-06-14T05:09:13;94939.34;;;19.57;90.60
77702;BME280;66868;42.708;23.404;2023-06-14T05:11:40;94947.13;;;19.65;90.41
77702;BME280;66868;42.708;23.404;2023-06-14T05:14:12;94946.25;;;19.74;89.21
77702;BME280;66868;42.708;23.404;2023-06-14T05:16:37;94945.69;;;19.89;88.88
77702;BME280;66868;42.708;23.404;2023-06-14T05:19:04;94931.63;;;19.75;88.53
77702;BME280;66868;42.708;23.404;2023-06-14T05:21:30;94956.63;;;19.91;88.38
77702;BME280;66868;42.708;23.404;2023-06-14T05:23:55;94958.88;;;19.94;88.32
77702;BME280;66868;42.708;23.404;2023-06-14T05:26:21;94959.16;;;19.82;87.33
77702;BME280;66868;42.708;23.404;2023-06-14T05:28:48;94952.69;;;19.78;87.41
77702;BME280;66868;42.708;23.404;2023-06-14T05:31:15;94967.03;;;19.89;87.82
77702;BME280;66868;42.708;23.404;2023-06-14T05:33:40;94967.16;;;20.05;86.89
77702;BME280;66868;42.708;23.404;2023-06-14T05:36:05;94957.03;;;20.04;86.58
77702;BME280;66868;42.708;23.404;2023-06-14T05:38:31;94972.56;;;20.20;85.77
77702;BME280;66868;42.708;23.404;2023-06-14T05:40:56;94954.59;;;20.02;86.10
77702;BME280;66868;42.708;23.404;2023-06-14T05:43:22;94973.53;;;20.19;86.31
77702;BME280;66868;42.708;23.404;2023-06-14T05:45:47;94912.84;;;19.74;85.00
77702;BME280;66868;42.708;23.404;2023-06-14T05:48:13;94957.97;;;20.03;85.04
77702;BME280;66868;42.708;23.404;2023-06-14T05:50:38;94948.72;;;20.10;84.57
77702;BME280;66868;42.708;23.404;2023-06-14T05:53:03;94981.34;;;20.35;84.14
77702;BME280;66868;42.708;23.404;2023-06-14T05:55:29;94961.91;;;20.33;83.81
77702;BME280;66868;42.708;23.404;2023-06-14T05:57:54;94964.63;;;20.31;85.11
77702;BME280;66868;42.708;23.404;2023-06-14T06:00:20;94982.63;;;20.31;85.71
77702;BME280;66868;42.708;23.404;2023-06-14T06:02:46;94979.44;;;20.37;85.55
77702;BME280;66868;42.708;23.404;2023-06-14T06:05:13;94986.25;;;20.46;86.04
77702;BME280;66868;42.708;23.404;2023-06-14T06:07:39;94984.97;;;20.50;85.93
77702;BME280;66868;42.708;23.404;2023-06-14T06:10:10;94982.97;;;20.36;85.41
77702;BME280;66868;42.708;23.404;2023-06-14T06:12:36;94993.34;;;20.52;84.93
77702;BME280;66868;42.708;23.404;2023-06-14T06:15:02;94988.88;;;20.62;84.10
77702;BME280;66868;42.708;23.404;2023-06-14T06:17:28;94983.88;;;20.53;84.12
77702;BME280;66868;42.708;23.404;2023-06-14T06:19:53;94989.06;;;20.61;84.34
77702;BME280;66868;42.708;23.404;2023-06-14T06:22:19;94979.63;;;20.78;84.00
77702;BME280;66868;42.708;23.404;2023-06-14T06:24:44;94992.88;;;20.91;83.48
77702;BME280;66868;42.708;23.404;2023-06-14T06:27:10;94952.63;;;20.82;83.46
77702;BME280;66868;42.708;23.404;2023-06-14T06:29:37;94980.66;;;20.93;81.75
77702;BME280;66868;42.708;23.404;2023-06-14T06:32:03;94995.38;;;20.75;82.64
77702;BME280;66868;42.708;23.404;2023-06-14T06:34:28;94993.16;;;20.80;83.01
77702;BME280;66868;42.708;23.404;2023-06-14T06:36:54;94978.69;;;20.79;83.31
77702;BME280;66868;42.708;23.404;2023-06-14T06:39:20;95000.53;;;20.75;84.35
77702;BME280;66868;42.708;23.404;2023-06-14T06:41:45;95004.03;;;20.65;84.07
77702;BME280;66868;42.708;23.404;2023-06-14T06:44:11;94985.41;;;20.38;85.13
77702;BME280;66868;42.708;23.404;2023-06-14T06:46:38;95010.81;;;20.41;85.92
77702;BME280;66868;42.708;23.404;2023-06-14T06:49:06;94985.13;;;20.23;86.11
77702;BME280;66868;42.708;23.404;2023-06-14T06:51:31;95004.41;;;20.27;87.18
77702;BME280;66868;42.708;23.404;2023-06-14T06:53:56;94997.91;;;20.33;87.07
77702;BME280;66868;42.708;23.404;2023-06-14T06:56:22;94989.03;;;20.53;86.72
77702;BME280;66868;42.708;23.404;2023-06-14T06:58:51;94997.84;;;20.84;85.86
77702;BME280;66868;42.708;23.404;2023-06-14T07:01:17;94998.91;;;21.07;84.56
77702;BME280;66868;42.708;23.404;2023-06-14T07:03:45;95004.28;;;21.30;83.81
77702;BME280;66868;42.708;23.404;2023-06-14T07:06:10;95004.50;;;21.53;nan
77702;BME280;66868;42.708;23.404;2023-06-14T07:08:36;94998.56;;;21.69;82.56
77702;BME280;66868;42.708;23.404;2023-06-14T07:11:04;94997.28;;;21.81;81.70
77702;BME280;66868;42.708;23.404;2023-06-14T07:13:30;94998.22;;;21.80;79.80
77702;BME280;66868;42.708;23.404;2023-06-14T07:15:58;94999.03;;;21.72;80.08
77702;BME280;66868;42.708;23.404;2023-06-14T07:18:23;94994.66;;;21.65;81.24
77702;BME280;66868;42.708;23.404;2023-06-14T07:20:49;95005.34;;;21.94;81.05
77702;BME280;66868;42.708;23.404;2023-06-14T07:23:15;95002.78;;;22.18;80.78
77702;BME280;66868;42.708;23.404;2023-06-14T07:25:40;94975.69;;;22.22;79.34
77702;BME280;66868;42.708;23.404;2023-06-14T07:28:06;94995.00;;;22.34;77.81
77702;BME280;66868;42.708;23.404;2023-06-14T07:30:32;94997.69;;;22.49;78.58
77702;BME280;66868;42.708;23.404;2023-06-14T07:32:57;94997.06;;;22.55;78.39
77702;BME280;66868;42.708;23.404;2023-06-14T07:35:23;94997.38;;;22.60;78.29
77702;BME280;66868;42.708;23.404;2023-06-14T07:37:48;94997.19;;;22.62;77.53
77702;BME280;66868;42.708;23.404;2023-06-14T07:40:15;94997.69;;;22.57;77.73
77702;BME280;66868;42.708;23.404;2023-06-14T07:42:40;94997.53;;;22.59;77.61
77702;BME280;66868;42.708;23.404;2023-06-14T07:45:06;94992.00;;;22.62;78.11
77702;BME280;66868;42.708;23.404;2023-06-14T07:47:32;94992.66;;;22.72;77.52
77702;BME280;66868;42.708;23.404;2023-06-14T07:49:57;94986.03;;;22.61;76.05
77702;BME280;66868;42.708;23.404;2023-06-14T07:52:23;94980.75;;;22.55;76.69
77702;BME280;66868;42.708;23.404;2023-06-14T07:54:48;94998.16;;;22.53;75.61
77702;BME280;66868;42.708;23.404;2023-06-14T07:57:14;95001.44;;;22.30;76.58
77702;BME280;66868;42.708;23.404;2023-06-14T07:59:39;95008.84;;;22.50;76.60
77702;BME280;66868;42.708;23.404;2023-06-14T08:02:04;95004.94;;;22.54;75.94
77702;BME280;66868;42.708;23.404;2023-06-14T08:04:31;95012.38;;;22.48;75.57
77702;BME280;66868;42.708;23.404;2023-06-14T08:06:56;95011.91;;;22.45;74.59
77702;BME280;66868;42.708;23.404;2023-06-14T08:09:22;95021.13;;;22.31;76.32
77702;BME280;66868;42.708;23.404;2023-06-14T08:11:48;94987.44;;;21.92;77.02
77702;BME280;66868;42.708;23.404;2023-06-14T08:14:13;95028.56;;;22.18;77.29
77702;BME280;66868;42.708;23.404;2023-06-14T08:16:39;95027.59;;;22.19;76.51
77702;BME280;66868;42.708;23.404;2023-06-14T08:19:04;95035.00;;;22.14;75.44
77702;BME280;66868;42.708;23.404;2023-06-14T08:21:29;95028.41;;;22.03;76.28
77702;BME280;66868;42.708;23.404;2023-06-14T08:23:55;95008.72;;;22.02;76.14
77702;BME280;66868;42.708;23.404;2023-06-14T08:26:21;95037.41;;;22.32;75.45
77702;BME280;66868;42.708;23.404;2023-06-14T08:28:47;95032.03;;;22.58;74.21
77702;BME280;66868;42.708;23.404;2023-06-14T08:31:12;95034.13;;;22.78;72.97
77702;BME280;66868;42.708;23.404;2023-06-14T08:33:38;95042.59;;;22.95;72.41
77702;BME280;66868;42.708;23.404;2023-06-14T08:36:04;95043.53;;;23.10;71.71
77702;BME280;66868;42.708;23.404;2023-06-14T08:38:30;95043.31;;;23.20;71.25
77702;BME280;66868;42.708;23.404;2023-06-14T08:40:57;95042.78;;;23.32;70.94
77702;BME280;66868;42.708;23.404;2023-06-14T08:43:22;95038.84;;;23.45;71.29
77702;BME280;66868;42.708;23.404;2023-06-14T08:45:48;95036.94;;;23.39;68.57
77702;BME280;66868;42.708;23.404;2023-06-14T08:48:19;95030.19;;;23.29;68.58
77702;BME280;66868;42.708;23.404;2023-06-14T08:50:46;95027.78;;;23.28;69.06
77702;BME280;66868;42.708;23.404;2023-06-14T08:53:14;95019.56;;;23.24;68.33
77702;BME280;66868;42.708;23.404;2023-06-14T08:55:45;95018.38;;;23.04;68.54
77702;BME280;66868;42.708;23.404;2023-06-14T08:58:12;95017.81;;;23.17;68.91
77702;BME280;66868;42.708;23.404;2023-06-14T09:00:39;95018.66;;;23.09;69.00
77702;BME280;66868;42.708;23.404;2023-06-14T09:03:07;95015.97;;;23.03;68.73
77702;BME280;66868;42.708;23.404;2023-06-14T09:05:38;95011.72;;;23.10;69.68
77702;BME280;66868;42.708;23.404;2023-06-14T09:08:04;95017.69;;;23.10;70.66
77702;BME280;66868;42.708;23.404;2023-06-14T09:10:31;94999.56;;;23.18;70.57
77702;BME280;66868;42.708;23.404;2023-06-14T09:13:01;95004.97;;;23.31;70.61
77702;BME280;66868;42.708;23.404;2023-06-14T09:15:26;95001.06;;;23.44;71.00
77702;BME280;66868;42.708;23.404;2023-06-14T09:17:53;94997.81;;;23.50;68.29
77702;BME280;66868;42.708;23.404;2023-06-14T09:20:18;95014.84;;;23.67;67.31
77702;BME280;66868;42.708;23.404;2023-06-14T09:22:44;95009.19;;;23.86;65.90
77702;BME280;66868;42.708;23.404;2023-06-14T09:25:10;95010.75;;;23.95;64.74
77702;BME280;66868;42.708;23.404;2023-06-14T09:27:37;95008.63;;;23.99;64.56
77702;BME280;66868;42.708;23.404;2023-06-14T09:30:05;95014.59;;;24.14;64.48
77702;BME280;66868;42.708;23.404;2023-06-14T09:32:37;95003.63;;;24.35;65.17
77702;BME280;66868;42.708;23.404;2023-06-14T09:35:03;95013.47;;;24.54;64.47
77702;BME280;66868;42.708;23.404;2023-06-14T09:37:30;95013.09;;;24.57;63.25
77702;BME280;66868;42.708;23.404;2023-06-14T09:39:57;95014.28;;;24.69;62.98
77702;BME280;66868;42.708;23.404;2023-06-14T09:42:23;95008.66;;;24.80;62.61
77702;BME280;66868;42.708;23.404;2023-06-14T09:44:51;94995.28;;;24.91;62.75
77702;BME280;66868;42.708;23.404;2023-06-14T09:47:17;95010.28;;;25.11;62.17
77702;BME280;66868;42.708;23.404;2023-06-14T09:49:43;94994.72;;;25.11;61.81
77702;BME280;66868;42.708;23.404;2023-06-14T09:52:14;94990.72;;;24.93;61.94
77702;BME280;66868;42.708;23.404;2023-06-14T09:54:44;94984.47;;;24.88;62.13
77702;BME280;66868;42.708;23.404;2023-06-14T09:57:15;94985.50;;;24.79;62.50
77702;BME280;66868;42.708;23.404;2023-06-14T09:59:45;94997.03;;;24.76;61.14
77702;BME280;66868;42.708;23.404;2023-06-14T10:05:17;94986.34;;;24.50;62.78
77702;BME280;66868;42.708;23.404;2023-06-14T10:10:16;94981.34;;;24.63;61.65
77702;BME280;66868;42.708;23.404;2023-06-14T10:12:41;94979.19;;;24.67;61.10
77702;BME280;66868;42.708;23.404;2023-06-14T10:15:15;94977.66;;;24.57;60.24
77702;BME280;66868;42.708;23.404;2023-06-14T10:17:47;94919.69;;;24.14;61.33
77702;BME280;66868;42.708;23.404;2023-06-14T10:20:21;94968.50;;;24.55;62.92
77702;BME280;66868;42.708;23.404;2023-06-14T10:23:15;94961.16;;;24.58;63.75
77702;BME280;66868;42.708;23.404;2023-06-14T10:25:38;94959.97;;;24.76;63.65
77702;BME280;66868;42.708;23.404;2023-06-14T10:30:38;94961.22;;;25.09;62.79
77702;BME280;66868;42.708;23.404;2023-06-14T10:33:07;94967.72;;;25.20;61.18
77702;BME280;66868;42.708;23.404;2023-06-14T10:35:33;94940.50;;;25.09;60.87
77702;BME280;66868;42.708;23.404;2023-06-14T10:38:08;94965.38;;;25.25;59.19
77702;BME280;66868;42.708;23.404;2023-06-14T10:40:34;94911.94;;;24.73;59.19
77702;BME280;66868;42.708;23.404;2023-06-14T10:43:21;94957.66;;;24.95;59.78
77702;BME280;66868;42.708;23.404;2023-06-14T10:46:13;94963.47;;;24.68;60.40
77702;BME280;66868;42.708;23.404;2023-06-14T10:48:42;94963.38;;;24.76;61.38
77702;BME280;66868;42.708;23.404;2023-06-14T10:51:19;94955.06;;;24.95;62.25
77702;BME280;66868;42.708;23.404;2023-06-14T10:53:49;94951.41;;;25.26;60.81
77702;BME280;66868;42.708;23.404;2023-06-14T10:56:28;94941.34;;;25.52;60.16
77702;BME280;66868;42.708;23.404;2023-06-14T10:58:55;94939.16;;;25.77;59.28
77702;BME280;66868;42.708;23.404;2023-06-14T11:01:31;94933.75;;;26.00;58.29
77702;BME280;66868;42.708;23.404;2023-06-14T11:04:09;94928.72;;;26.19;58.90
77702;BME280;66868;42.708;23.404;2023-06-14T11:06:47;94942.44;;;26.41;58.12
77702;BME280;66868;42.708;23.404;2023-06-14T11:11:58;94928.28;;;26.85;58.68
77702;BME280;66868;42.708;23.404;2023-06-14T11:14:25;94921.19;;;27.00;55.30
77702;BME280;66868;42.708;23.404;2023-06-14T11:16:50;94931.19;;;27.03;54.39
77702;BME280;66868;42.708;23.404;2023-06-14T11:19:16;94930.38;;;27.02;54.60
77702;BME280;66868;42.708;23.404;2023-06-14T11:21:42;94935.59;;;27.02;54.02
77702;BME280;66868;42.708;23.404;2023-06-14T11:24:12;94934.41;;;27.05;55.48
77702;BME280;66868;42.708;23.404;2023-06-14T11:26:37;94933.59;;;27.04;53.29
77702;BME280;66868;42.708;23.404;2023-06-14T11:29:03;94923.16;;;26.98;53.80
77702;BME280;66868;42.708;23.404;2023-06-14T11:31:29;94918.22;;;27.16;54.88
77702;BME280;66868;42.708;23.404;2023-06-14T11:33:59;94922.88;;;27.40;56.19
77702;BME280;66868;42.708;23.404;2023-06-14T11:36:29;94928.75;;;27.68;54.24
77702;BME280;66868;42.708;23.404;2023-06-14T11:39:03;94934.16;;;28.00;52.07
77702;BME280;66868;42.708;23.404;2023-06-14T11:41:42;94932.16;;;28.28;52.74
77702;BME280;66868;42.708;23.404;2023-06-14T11:44:08;94919.69;;;28.50;51.73
77702;BME280;66868;42.708;23.404;2023-06-14T11:46:34;94929.28;;;28.76;51.34
77702;BME280;66868;42.708;23.404;2023-06-14T11:49:02;94896.31;;;28.88;51.03
77702;BME280;66868;42.708;23.404;2023-06-14T11:51:33;94914.97;;;29.29;50.73
77702;BME280;66868;42.708;23.404;2023-06-14T11:54:00;94912.47;;;29.48;49.46
77702;BME280;66868;42.708;23.404;2023-06-14T11:56:26;94907.75;;;29.63;48.62
77702;BME280;66868;42.708;23.404;2023-06-14T11:58:52;94898.00;;;29.76;48.08
77702;BME280;66868;42.708;23.404;2023-06-14T12:01:18;94907.63;;;30.07;47.34
77702;BME280;66868;42.708;23.404;2023-06-14T12:03:50;94888.94;;;30.28;46.51
77702;BME280;66868;42.708;23.404;2023-06-14T12:06:16;94894.78;;;30.49;45.92
77702;BME280;66868;42.708;23.404;2023-06-14T12:08:50;94883.88;;;30.70;47.50
77702;BME280;66868;42.708;23.404;2023-06-14T12:11:15;94881.38;;;30.93;46.30
77702;BME280;66868;42.708;23.404;2023-06-14T12:13:42;94881.94;;;31.13;46.51
77702;BME280;66868;42.708;23.404;2023-06-14T12:16:09;94893.25;;;31.26;43.45
77702;BME280;66868;42.708;23.404;2023-06-14T12:18:36;94890.31;;;31.34;43.73
77702;BME280;66868;42.708;23.404;2023-06-14T12:21:05;94870.84;;;31.30;43.59
77702;BME280;66868;42.708;23.404;2023-06-14T12:23:58;94882.72;;;31.44;43.36
77702;BME280;66868;42.708;23.404;2023-06-14T12:26:24;94868.72;;;31.50;43.55
77702;BME280;66868;42.708;23.404;2023-06-14T12:28:51;94865.03;;;31.58;41.92
77702;BME280;66868;42.708;23.404;2023-06-14T12:31:16;94876.41;;;31.86;41.67
77702;BME280;66868;42.708;23.404;2023-06-14T12:33:43;94860.94;;;31.96;41.70
77702;BME280;66868;42.708;23.404;2023-06-14T12:36:11;94868.94;;;32.25;41.19
77702;BME280;66868;42.708;23.404;2023-06-14T12:38:37;94867.00;;;32.32;40.31
77702;BME280;66868;42.708;23.404;2023-06-14T12:41:03;94850.03;;;32.23;40.79
77702;BME280;66868;42.708;23.404;2023-06-14T12:43:29;94862.44;;;32.16;39.91
77702;BME280;66868;42.708;23.404;2023-06-14T12:45:54;94860.63;;;32.16;40.62
77702;BME280;66868;42.708;23.404;2023-06-14T12:48:20;94851.41;;;32.14;41.09
77702;BME280;66868;42.708;23.404;2023-06-14T12:50:45;94851.97;;;32.16;41.05
77702;BME280;66868;42.708;23.404;2023-06-14T12:53:11;94855.59;;;32.26;41.40
77702;BME280;66868;42.708;23.404;2023-06-14T12:55:37;94848.41;;;32.45;39.39
77702;BME280;66868;42.708;23.404;2023-06-14T12:58:02;94852.13;;;32.72;39.54